Evans, Washington
Current Conditions -  °F | °C
As of 7:00 PM on Wednesday 22 Oct 2014 (Local Time) from CYCG Reporting Station
Rain Showers Rain Showers  
Wind Chill: 44°   Ceiling: 2500
Heat Index: 48°   Visibility: 8mi
Dew Point: 46°   Wind: 9mph
Humidity: 93%   Direction: 360°N
Pressure: 29.78"   Gusts: NA
Location:  48.71°N, 118.03°W
Report Text: CYCG 230200Z 36008KT 310V030 8SM -SHRA FEW005 SCT010 BKN025 OVC039 09/08 A2978 RMK SF2SC2SC2SC2 SLP091
Loading
Personal Weather Stations






























Interactive Weather Map
Tropical Storm Tracking
New forecast layout! Learn more

10-Day Weather Forecast

Advertisements
Track Severe Weather on mobile